Time;durP1;ratioP1;P1;durP2;ratioP2;P2;SDS_P1;SDS_P2;PMS_P1;PMS_P2;Temp;Humidity;BMP_temperature;BMP_pressure;BME280_temperature;BME280_humidity;BME280_pressure;Samples;Min_cycle;Max_cycle;Signal;HPM_P1;HPM_P2
2023/01/15 00:00:03;;;;;;;;;;;8.50;99.90;;;;;;5048740;28;19935;-66
2023/01/15 00:02:30;;;;;;;;;;;8.40;99.90;;;;;;5049290;28;20354;-66
2023/01/15 00:04:55;;;;;;;;;;;8.40;99.90;;;;;;5048716;28;20548;-66
2023/01/15 00:07:21;;;;;;;;;;;8.40;99.90;;;;;;5039057;28;19920;-66
2023/01/15 00:09:46;;;;;;;;;;;8.40;99.90;;;;;;5033314;28;19913;-66
2023/01/15 00:12:12;;;;;;;;;;;8.40;99.90;;;;;;5028906;28;20322;-66
2023/01/15 00:14:37;;;;;;;;;;;8.30;99.90;;;;;;5028879;28;19913;-66
2023/01/15 00:17:03;;;;;;;;;;;8.30;99.90;;;;;;5028868;28;19948;-66
2023/01/15 00:19:28;;;;;;;;;;;8.30;99.90;;;;;;5050539;28;19920;-66
2023/01/15 00:21:54;;;;;;;;;;;8.30;99.90;;;;;;5068465;28;19916;-66
2023/01/15 00:29:48;;;;;;;;;;;8.20;99.90;;;;;;5069327;28;19948;-66
2023/01/15 00:32:13;;;;;;;;;;;8.20;99.90;;;;;;5069615;28;19920;-66
2023/01/15 00:34:38;;;;;;;;;;;8.10;99.90;;;;;;5068536;28;19951;-66
2023/01/15 00:37:04;;;;;;;;;;;8.20;99.90;;;;;;5046652;28;19913;-66
2023/01/15 00:39:29;;;;;;;;;;;8.10;99.90;;;;;;5038110;28;19909;-66
2023/01/15 00:41:55;;;;;;;;;;;8.10;99.90;;;;;;5028506;28;19920;-66
2023/01/15 00:44:21;;;;;;;;;;;8.10;99.90;;;;;;5029002;28;19971;-66
2023/01/15 00:46:46;;;;;;;;;;;8.10;99.90;;;;;;5028715;28;19920;-66
2023/01/15 00:49:12;;;;;;;;;;;8.00;99.90;;;;;;5036792;28;19917;-66
2023/01/15 00:51:37;;;;;;;;;;;8.00;99.90;;;;;;5049459;28;19908;-66
2023/01/15 00:54:03;;;;;;;;;;;8.00;99.90;;;;;;5049189;28;19913;-66
2023/01/15 00:56:28;;;;;;;;;;;8.00;99.90;;;;;;5065152;28;20641;-66
2023/01/15 00:58:54;;;;;;;;;;;8.00;99.90;;;;;;5068348;28;20326;-66
2023/01/15 01:01:20;;;;;;;;;;;8.00;99.90;;;;;;5068587;28;20422;-66
2023/01/15 01:03:47;;;;;;;;;;;8.00;99.90;;;;;;5068876;28;20346;-66
2023/01/15 01:06:14;;;;;;;;;;;7.90;99.90;;;;;;5065297;28;20038;-66
2023/01/15 01:08:40;;;;;;;;;;;7.90;99.90;;;;;;5048894;28;19913;-66
2023/01/15 01:11:07;;;;;;;;;;;7.90;99.90;;;;;;5048612;28;19970;-66
2023/01/15 01:13:33;;;;;;;;;;;7.90;99.90;;;;;;5048855;28;20449;-66
2023/01/15 01:15:59;;;;;;;;;;;7.90;99.90;;;;;;5048169;28;19915;-66
2023/01/15 01:18:24;;;;;;;;;;;7.90;99.90;;;;;;5043642;28;20000;-66
2023/01/15 01:20:50;;;;;;;;;;;7.90;99.90;;;;;;5027868;28;19967;-66
2023/01/15 01:23:15;;;;;;;;;;;7.80;99.90;;;;;;5028714;28;20282;-66
2023/01/15 01:25:41;;;;;;;;;;;7.90;99.90;;;;;;5044203;28;20019;-66
2023/01/15 01:28:06;;;;;;;;;;;7.80;99.90;;;;;;5040064;28;19909;-66
2023/01/15 01:30:32;;;;;;;;;;;7.80;99.90;;;;;;5045038;28;20350;-66
2023/01/15 01:32:57;;;;;;;;;;;7.80;99.90;;;;;;5046959;28;19913;-66
2023/01/15 01:35:23;;;;;;;;;;;7.80;99.90;;;;;;5047841;28;19966;-66
2023/01/15 01:37:49;;;;;;;;;;;7.80;99.90;;;;;;5048335;28;19920;-66
2023/01/15 01:40:15;;;;;;;;;;;7.80;99.90;;;;;;5046465;28;20624;-66
2023/01/15 01:42:41;;;;;;;;;;;7.80;99.90;;;;;;5048350;28;19923;-66
2023/01/15 01:45:12;;;;;;;;;;;7.80;99.90;;;;;;5030695;28;19921;-66
2023/01/15 01:47:38;;;;;;;;;;;7.70;99.90;;;;;;5028569;28;20265;-66
2023/01/15 01:50:06;;;;;;;;;;;7.70;99.90;;;;;;5035524;28;19913;-66
2023/01/15 01:52:36;;;;;;;;;;;7.70;99.90;;;;;;5027736;28;19917;-66
2023/01/15 01:55:01;;;;;;;;;;;7.70;99.90;;;;;;5035257;28;19986;-66
2023/01/15 01:57:27;;;;;;;;;;;7.70;99.90;;;;;;5066701;28;19932;-66
2023/01/15 01:59:53;;;;;;;;;;;7.70;99.90;;;;;;5066409;28;19919;-66
2023/01/15 02:02:20;;;;;;;;;;;7.70;99.90;;;;;;5066980;28;19912;-66
2023/01/15 02:04:46;;;;;;;;;;;7.70;99.90;;;;;;5068043;28;19924;-66
2023/01/15 02:07:12;;;;;;;;;;;7.60;99.90;;;;;;5055509;28;20520;-66
2023/01/15 02:09:38;;;;;;;;;;;7.60;99.90;;;;;;5047503;28;20306;-66
2023/01/15 02:12:25;;;;;;;;;;;7.60;99.90;;;;;;5047785;28;20380;-66
2023/01/15 02:15:00;;;;;;;;;;;7.60;99.90;;;;;;5047616;28;19920;-66
2023/01/15 02:17:31;;;;;;;;;;;7.60;99.90;;;;;;5047907;28;19943;-66
2023/01/15 02:20:09;;;;;;;;;;;7.60;99.90;;;;;;5029285;28;19924;-66
2023/01/15 02:22:37;;;;;;;;;;;7.60;99.90;;;;;;5027342;28;19919;-66
2023/01/15 02:25:20;;;;;;;;;;;7.60;99.90;;;;;;5030723;28;20372;-66
2023/01/15 02:27:48;;;;;;;;;;;7.60;99.90;;;;;;5047543;28;19935;-66
2023/01/15 02:30:21;;;;;;;;;;;7.60;99.90;;;;;;5047131;28;19909;-66
2023/01/15 02:32:52;;;;;;;;;;;7.50;99.90;;;;;;5056882;28;19993;-66
2023/01/15 02:35:26;;;;;;;;;;;7.60;99.90;;;;;;5067283;28;19912;-66
2023/01/15 02:37:58;;;;;;;;;;;7.50;99.90;;;;;;5048648;28;19917;-66
2023/01/15 02:40:24;;;;;;;;;;;7.60;99.90;;;;;;5044895;28;19913;-66
2023/01/15 02:42:51;;;;;;;;;;;7.50;99.90;;;;;;5047291;28;20569;-66
2023/01/15 02:45:22;;;;;;;;;;;7.50;99.90;;;;;;5046193;28;19920;-66
2023/01/15 02:47:50;;;;;;;;;;;7.50;99.90;;;;;;5045004;28;19936;-66
2023/01/15 02:50:18;;;;;;;;;;;7.50;99.90;;;;;;5055135;28;19913;-66
2023/01/15 02:52:46;;;;;;;;;;;7.50;99.90;;;;;;5047242;28;19963;-66
2023/01/15 02:55:14;;;;;;;;;;;7.50;99.90;;;;;;5052007;28;19913;-66
2023/01/15 02:57:42;;;;;;;;;;;7.50;99.90;;;;;;5066491;28;20585;-66
2023/01/15 03:00:09;;;;;;;;;;;7.50;99.90;;;;;;5064945;28;20371;-66
2023/01/15 03:02:54;;;;;;;;;;;7.50;99.90;;;;;;5067563;28;19997;-66
2023/01/15 03:05:29;;;;;;;;;;;7.50;99.90;;;;;;5066858;28;20687;-66
2023/01/15 03:07:56;;;;;;;;;;;7.40;99.90;;;;;;5049374;28;19937;-66
2023/01/15 03:10:27;;;;;;;;;;;7.40;99.90;;;;;;5046229;28;20424;-66
2023/01/15 03:13:02;;;;;;;;;;;7.50;99.90;;;;;;5046747;28;19936;-66
2023/01/15 03:18:35;;;;;;;;;;;7.50;99.90;;;;;;5040074;28;20512;-66
2023/01/15 03:21:04;;;;;;;;;;;7.40;99.90;;;;;;5026235;28;20004;-66
2023/01/15 03:23:35;;;;;;;;;;;7.40;99.90;;;;;;5026098;28;20169;-66
2023/01/15 03:26:00;;;;;;;;;;;7.40;99.90;;;;;;5038918;28;19917;-66
2023/01/15 03:28:28;;;;;;;;;;;7.40;99.90;;;;;;5046524;28;20281;-66
2023/01/15 03:30:53;;;;;;;;;;;7.40;99.90;;;;;;5046387;28;19915;-66
2023/01/15 03:33:19;;;;;;;;;;;7.40;99.90;;;;;;5046361;28;19913;-66
2023/01/15 03:35:44;;;;;;;;;;;7.40;99.90;;;;;;5045115;28;20004;-66
2023/01/15 03:38:11;;;;;;;;;;;7.40;99.90;;;;;;5045145;28;19948;-66
2023/01/15 03:40:39;;;;;;;;;;;7.30;99.90;;;;;;5046177;28;19970;-66
2023/01/15 03:45:54;;;;;;;;;;;7.30;99.90;;;;;;5046373;28;20547;-66
2023/01/15 03:48:23;;;;;;;;;;;7.30;99.90;;;;;;5046973;28;19912;-66
2023/01/15 03:50:54;;;;;;;;;;;7.30;99.90;;;;;;5053287;28;20069;-66
2023/01/15 03:53:21;;;;;;;;;;;7.30;99.90;;;;;;5046481;28;20003;-66
2023/01/15 03:55:51;;;;;;;;;;;7.30;99.90;;;;;;5056767;28;19943;-66
2023/01/15 03:58:18;;;;;;;;;;;7.30;99.90;;;;;;5066606;28;19940;-66
2023/01/15 04:00:51;;;;;;;;;;;7.30;99.90;;;;;;5065018;28;19908;-66
2023/01/15 04:03:18;;;;;;;;;;;7.30;99.90;;;;;;5066231;28;19912;-66
2023/01/15 04:05:44;;;;;;;;;;;7.30;99.90;;;;;;5065641;28;19913;-66
2023/01/15 04:08:11;;;;;;;;;;;7.30;99.90;;;;;;5046733;28;20527;-66
2023/01/15 04:10:36;;;;;;;;;;;7.30;99.90;;;;;;5046346;28;19920;-66
2023/01/15 04:13:02;;;;;;;;;;;7.30;99.90;;;;;;5046485;28;19913;-66
2023/01/15 04:15:27;;;;;;;;;;;7.30;99.90;;;;;;5046067;28;19909;-66
2023/01/15 04:17:53;;;;;;;;;;;7.30;99.90;;;;;;5045798;28;19909;-66
2023/01/15 04:20:18;;;;;;;;;;;7.30;99.90;;;;;;5025260;28;19975;-66
2023/01/15 04:22:44;;;;;;;;;;;7.30;99.90;;;;;;5025612;28;19921;-66
2023/01/15 04:25:09;;;;;;;;;;;7.20;99.90;;;;;;5033322;28;19923;-66
2023/01/15 04:27:35;;;;;;;;;;;7.30;99.90;;;;;;5049875;28;19913;-65
2023/01/15 04:30:00;;;;;;;;;;;7.20;99.90;;;;;;5049169;28;19913;-66
2023/01/15 04:32:26;;;;;;;;;;;7.20;99.90;;;;;;5049542;28;19930;-66
2023/01/15 04:34:51;;;;;;;;;;;7.20;99.90;;;;;;5049457;28;19939;-66
2023/01/15 04:46:07;;;;;;;;;;;7.20;99.90;;;;;;5033554;28;20286;-71
2023/01/15 04:48:33;;;;;;;;;;;7.20;99.90;;;;;;5034609;28;19913;-71
2023/01/15 04:51:05;;;;;;;;;;;7.20;99.90;;;;;;5054351;28;19924;-71
2023/01/15 04:53:30;;;;;;;;;;;7.20;99.90;;;;;;5049027;28;19912;-71
2023/01/15 04:56:02;;;;;;;;;;;7.20;99.90;;;;;;5060011;28;19920;-72
2023/01/15 04:58:28;;;;;;;;;;;7.20;99.90;;;;;;5067831;28;19913;-71
2023/01/15 05:00:54;;;;;;;;;;;7.20;99.90;;;;;;5069060;28;19912;-71
2023/01/15 05:03:19;;;;;;;;;;;7.10;99.90;;;;;;5069053;28;19919;-71
2023/01/15 05:05:45;;;;;;;;;;;7.20;99.90;;;;;;5062180;28;19920;-72
2023/01/15 05:08:10;;;;;;;;;;;7.10;99.90;;;;;;5047467;28;19990;-71
2023/01/15 05:10:36;;;;;;;;;;;7.10;99.90;;;;;;5047428;28;19912;-71
2023/01/15 05:13:01;;;;;;;;;;;7.10;99.90;;;;;;5046835;28;19915;-71
2023/01/15 05:15:27;;;;;;;;;;;7.10;99.90;;;;;;5047206;28;20366;-71
2023/01/15 05:17:52;;;;;;;;;;;7.20;99.90;;;;;;5048108;28;20487;-71
2023/01/15 05:20:18;;;;;;;;;;;7.10;99.90;;;;;;5028113;28;19909;-71
2023/01/15 05:22:43;;;;;;;;;;;7.10;99.90;;;;;;5028940;28;19909;-71
2023/01/15 05:25:09;;;;;;;;;;;7.10;99.90;;;;;;5032315;28;19917;-71
2023/01/15 05:27:34;;;;;;;;;;;7.10;99.90;;;;;;5048090;28;19913;-72
2023/01/15 05:30:00;;;;;;;;;;;7.10;99.90;;;;;;5047983;28;19913;-71
2023/01/15 05:32:25;;;;;;;;;;;7.10;99.90;;;;;;5048416;28;19920;-71
2023/01/15 05:34:50;;;;;;;;;;;7.10;99.90;;;;;;5048110;28;19936;-71
2023/01/15 05:37:16;;;;;;;;;;;7.10;99.90;;;;;;5041917;28;19939;-71
2023/01/15 05:39:41;;;;;;;;;;;7.10;99.90;;;;;;5048046;28;19912;-71
2023/01/15 05:42:07;;;;;;;;;;;7.10;99.90;;;;;;5038951;28;20020;-71
2023/01/15 05:44:32;;;;;;;;;;;7.10;99.90;;;;;;5037979;28;19921;-71
2023/01/15 05:47:01;;;;;;;;;;;7.10;99.90;;;;;;5047156;28;19919;-72
2023/01/15 05:49:27;;;;;;;;;;;7.10;99.90;;;;;;5054353;28;19912;-71
2023/01/15 05:51:52;;;;;;;;;;;7.10;99.90;;;;;;5047353;28;20083;-71
2023/01/15 05:54:22;;;;;;;;;;;7.10;99.90;;;;;;5048187;28;19916;-72
2023/01/15 05:56:48;;;;;;;;;;;7.10;99.90;;;;;;5066163;28;19920;-71
2023/01/15 05:59:14;;;;;;;;;;;7.10;99.90;;;;;;5067570;28;19909;-71
2023/01/15 06:01:40;;;;;;;;;;;7.00;99.90;;;;;;5063006;28;19913;-71
2023/01/15 06:04:05;;;;;;;;;;;7.00;99.90;;;;;;5047200;28;20373;-71
2023/01/15 06:06:32;;;;;;;;;;;7.10;99.90;;;;;;5046510;28;19916;-72
2023/01/15 06:08:57;;;;;;;;;;;7.00;99.90;;;;;;5047388;28;19912;-71
2023/01/15 06:11:23;;;;;;;;;;;7.00;99.90;;;;;;5047128;28;19917;-73
2023/01/15 06:13:48;;;;;;;;;;;7.00;99.90;;;;;;5046464;28;20428;-71
2023/01/15 06:16:14;;;;;;;;;;;7.00;99.90;;;;;;5045779;28;20293;-71
2023/01/15 06:18:40;;;;;;;;;;;7.00;99.90;;;;;;5032614;28;19935;-71
2023/01/15 06:21:07;;;;;;;;;;;7.00;99.90;;;;;;5065674;28;19920;-71
2023/01/15 06:23:35;;;;;;;;;;;7.00;99.90;;;;;;5065959;28;20705;-71
2023/01/15 06:26:11;;;;;;;;;;;7.00;99.90;;;;;;5065622;28;20011;-71
2023/01/15 06:28:37;;;;;;;;;;;7.00;99.90;;;;;;5065917;28;19928;-71
2023/01/15 06:31:06;;;;;;;;;;;7.00;99.90;;;;;;5057915;28;20480;-71
2023/01/15 06:33:32;;;;;;;;;;;7.00;99.90;;;;;;5045677;28;19952;-71
2023/01/15 06:35:57;;;;;;;;;;;7.00;99.90;;;;;;5045862;28;20017;-72
2023/01/15 06:38:23;;;;;;;;;;;7.00;99.90;;;;;;5044713;28;19923;-72
2023/01/15 06:40:48;;;;;;;;;;;7.00;99.90;;;;;;5026614;28;19913;-71
2023/01/15 06:48:43;;;;;;;;;;;7.00;99.90;;;;;;5031144;28;20397;-72
2023/01/15 06:51:08;;;;;;;;;;;7.00;99.90;;;;;;5045847;28;19913;-72
2023/01/15 06:53:34;;;;;;;;;;;7.00;99.90;;;;;;5046799;28;20372;-71
2023/01/15 06:56:02;;;;;;;;;;;7.00;99.90;;;;;;5044132;28;19924;-72
2023/01/15 06:58:28;;;;;;;;;;;7.00;99.90;;;;;;5046904;28;19948;-72
2023/01/15 07:00:55;;;;;;;;;;;7.00;99.90;;;;;;5044710;28;20374;-72
2023/01/15 07:03:21;;;;;;;;;;;7.00;99.90;;;;;;5044645;28;19963;-71
2023/01/15 07:05:47;;;;;;;;;;;7.00;99.90;;;;;;5046110;28;19938;-71
2023/01/15 07:08:12;;;;;;;;;;;7.00;99.90;;;;;;5044721;28;19912;-72
2023/01/15 07:10:38;;;;;;;;;;;7.00;99.90;;;;;;5045739;28;19908;-72
2023/01/15 07:13:03;;;;;;;;;;;7.00;99.90;;;;;;5045879;28;20269;-72
2023/01/15 07:15:30;;;;;;;;;;;7.00;99.90;;;;;;5045986;28;20000;-72
2023/01/15 07:17:56;;;;;;;;;;;7.00;99.90;;;;;;5045204;28;20574;-72
2023/01/15 07:20:21;;;;;;;;;;;7.00;99.90;;;;;;5025955;28;20274;-72
2023/01/15 07:22:50;;;;;;;;;;;7.00;99.90;;;;;;5025629;28;19913;-72
2023/01/15 07:25:16;;;;;;;;;;;7.00;99.90;;;;;;5031909;28;20774;-71
2023/01/15 07:27:41;;;;;;;;;;;7.00;99.90;;;;;;5036040;28;19917;-71
2023/01/15 07:30:07;;;;;;;;;;;6.90;99.90;;;;;;5034015;28;19996;-71
2023/01/15 07:32:32;;;;;;;;;;;7.00;99.90;;;;;;5036039;28;19929;-72
2023/01/15 07:34:58;;;;;;;;;;;7.00;99.90;;;;;;5035479;28;19913;-72
2023/01/15 07:37:23;;;;;;;;;;;7.00;99.90;;;;;;5035518;28;19914;-71
2023/01/15 07:39:49;;;;;;;;;;;7.00;99.90;;;;;;5032388;28;19917;-72
2023/01/15 07:50:27;;;;;;;;;;;6.90;99.90;;;;;;5039906;28;20016;-71
2023/01/15 07:52:52;;;;;;;;;;;6.90;99.90;;;;;;5034519;28;20000;-71
2023/01/15 07:55:18;;;;;;;;;;;6.90;99.90;;;;;;5038642;28;20010;-71
2023/01/15 07:57:43;;;;;;;;;;;7.00;99.90;;;;;;5035330;28;19913;-72
2023/01/15 08:00:12;;;;;;;;;;;6.90;99.90;;;;;;5035614;28;20008;-71
2023/01/15 08:02:37;;;;;;;;;;;6.90;99.90;;;;;;5038808;28;19916;-71
2023/01/15 08:05:03;;;;;;;;;;;6.90;99.90;;;;;;5038201;28;19944;-72
2023/01/15 08:07:29;;;;;;;;;;;6.90;99.90;;;;;;5039708;28;19983;-72
2023/01/15 08:09:54;;;;;;;;;;;6.90;99.90;;;;;;5037782;28;19913;-71
2023/01/15 08:15:14;;;;;;;;;;;6.90;99.90;;;;;;5038682;28;19983;-72
2023/01/15 08:17:40;;;;;;;;;;;6.90;99.90;;;;;;5037298;28;19913;-71
2023/01/15 08:20:08;;;;;;;;;;;6.90;99.90;;;;;;5036097;28;19991;-72
2023/01/15 08:22:33;;;;;;;;;;;6.90;99.90;;;;;;5035749;28;20004;-72
2023/01/15 08:24:59;;;;;;;;;;;6.90;99.90;;;;;;5039314;28;20054;-71
2023/01/15 08:27:25;;;;;;;;;;;6.90;99.90;;;;;;5040633;28;20016;-72
2023/01/15 08:29:51;;;;;;;;;;;6.90;99.90;;;;;;5047667;28;20066;-71
2023/01/15 08:32:17;;;;;;;;;;;6.90;99.90;;;;;;5049065;28;19939;-73
2023/01/15 08:34:42;;;;;;;;;;;6.90;99.90;;;;;;5043833;28;19917;-71
2023/01/15 08:37:08;;;;;;;;;;;6.90;99.90;;;;;;5039208;28;20531;-71
2023/01/15 08:39:33;;;;;;;;;;;6.90;99.90;;;;;;5039091;28;19948;-71
2023/01/15 08:41:59;;;;;;;;;;;6.90;99.90;;;;;;5031636;28;20306;-71
2023/01/15 08:44:24;;;;;;;;;;;6.90;99.90;;;;;;5036160;28;19920;-73
2023/01/15 08:46:51;;;;;;;;;;;6.90;99.90;;;;;;5041438;28;20031;-71
2023/01/15 08:49:16;;;;;;;;;;;6.90;99.90;;;;;;5057382;28;19913;-71
2023/01/15 08:51:43;;;;;;;;;;;6.90;99.90;;;;;;5069013;28;19947;-71
2023/01/15 08:54:08;;;;;;;;;;;6.90;99.90;;;;;;5052468;28;19913;-71
2023/01/15 08:56:34;;;;;;;;;;;6.90;99.90;;;;;;5065072;28;19923;-71
2023/01/15 08:59:03;;;;;;;;;;;6.90;99.90;;;;;;5069011;28;20375;-71
2023/01/15 09:01:29;;;;;;;;;;;6.90;99.90;;;;;;5068933;28;19916;-72
2023/01/15 09:03:54;;;;;;;;;;;6.90;99.90;;;;;;5068892;28;19912;-72
2023/01/15 09:06:20;;;;;;;;;;;6.90;99.90;;;;;;5063942;28;19924;-72
2023/01/15 09:08:45;;;;;;;;;;;6.90;99.90;;;;;;5048871;28;20464;-72
2023/01/15 09:11:12;;;;;;;;;;;6.90;99.90;;;;;;5048145;28;19913;-72
2023/01/15 09:13:37;;;;;;;;;;;6.90;99.90;;;;;;5048772;28;19920;-71
2023/01/15 09:16:04;;;;;;;;;;;6.90;99.90;;;;;;5048531;28;19917;-71
2023/01/15 09:18:30;;;;;;;;;;;6.90;99.90;;;;;;5048138;28;19912;-72
2023/01/15 09:20:55;;;;;;;;;;;6.90;99.90;;;;;;5039935;28;20400;-71
2023/01/15 09:23:21;;;;;;;;;;;6.90;99.90;;;;;;5048299;28;19951;-72
2023/01/15 09:26:00;;;;;;;;;;;6.90;99.90;;;;;;5058473;28;20273;-71
2023/01/15 09:28:26;;;;;;;;;;;6.90;99.90;;;;;;5067141;28;19985;-71
2023/01/15 09:30:52;;;;;;;;;;;6.90;99.90;;;;;;5068126;28;19909;-71
2023/01/15 09:33:17;;;;;;;;;;;6.90;99.90;;;;;;5067033;28;20361;-71
2023/01/15 09:35:43;;;;;;;;;;;6.80;99.90;;;;;;5068434;28;19917;-71
2023/01/15 09:38:10;;;;;;;;;;;6.80;99.90;;;;;;5050312;28;20281;-71
2023/01/15 09:40:36;;;;;;;;;;;6.90;99.90;;;;;;5039647;28;19955;-72
2023/01/15 09:43:05;;;;;;;;;;;6.90;99.90;;;;;;5037295;28;19996;-71
2023/01/15 09:45:36;;;;;;;;;;;6.90;99.90;;;;;;5040810;28;20020;-71
2023/01/15 09:48:17;;;;;;;;;;;6.90;99.90;;;;;;5039429;28;19967;-72
2023/01/15 09:50:45;;;;;;;;;;;6.90;99.90;;;;;;5037243;28;19913;-72
2023/01/15 09:53:30;;;;;;;;;;;6.90;99.90;;;;;;5036172;28;19913;-71
2023/01/15 09:55:56;;;;;;;;;;;6.90;99.90;;;;;;5039658;28;19917;-71
2023/01/15 09:58:30;;;;;;;;;;;6.90;99.90;;;;;;5038659;28;19915;-71
2023/01/15 10:00:56;;;;;;;;;;;6.80;99.90;;;;;;5036169;28;20301;-71
2023/01/15 10:03:25;;;;;;;;;;;6.80;99.90;;;;;;5037930;28;19913;-72
2023/01/15 10:05:55;;;;;;;;;;;6.80;99.90;;;;;;5036321;28;20354;-71
2023/01/15 10:08:20;;;;;;;;;;;6.80;99.90;;;;;;5039138;28;19919;-71
2023/01/15 10:10:47;;;;;;;;;;;6.80;99.90;;;;;;5036992;28;19916;-72
2023/01/15 10:13:16;;;;;;;;;;;6.90;99.90;;;;;;5032272;28;19920;-72
2023/01/15 10:15:44;;;;;;;;;;;6.90;99.90;;;;;;5037966;28;20722;-71
2023/01/15 10:18:15;;;;;;;;;;;6.90;99.90;;;;;;5036821;28;19913;-71
2023/01/15 10:20:40;;;;;;;;;;;6.90;99.90;;;;;;5036224;28;20324;-72
2023/01/15 10:23:09;;;;;;;;;;;6.90;99.90;;;;;;5035602;28;19909;-72
2023/01/15 10:25:41;;;;;;;;;;;7.00;99.90;;;;;;5038573;28;19925;-71
2023/01/15 10:28:15;;;;;;;;;;;6.90;99.90;;;;;;5036953;28;19956;-71
2023/01/15 10:30:42;;;;;;;;;;;7.00;99.90;;;;;;5035965;28;19913;-71
2023/01/15 10:33:34;;;;;;;;;;;7.00;99.90;;;;;;5036811;28;19912;-71
2023/01/15 10:36:02;;;;;;;;;;;7.00;99.90;;;;;;5019431;28;20373;-70
2023/01/15 10:38:31;;;;;;;;;;;7.00;99.90;;;;;;5036781;28;19917;-70
2023/01/15 10:41:15;;;;;;;;;;;7.00;99.90;;;;;;5037501;28;19944;-71
2023/01/15 10:43:46;;;;;;;;;;;7.00;99.90;;;;;;5037705;28;19921;-71
2023/01/15 10:46:14;;;;;;;;;;;7.00;99.90;;;;;;5036419;28;19920;-71
2023/01/15 10:48:47;;;;;;;;;;;7.10;99.90;;;;;;5036786;28;19960;-71
2023/01/15 10:51:25;;;;;;;;;;;7.10;99.90;;;;;;5034876;28;19967;-71
2023/01/15 10:53:54;;;;;;;;;;;7.10;99.90;;;;;;5036922;28;20361;-71
2023/01/15 10:56:30;;;;;;;;;;;7.10;99.90;;;;;;5037269;28;19920;-71
2023/01/15 10:59:00;;;;;;;;;;;7.10;99.90;;;;;;5035091;28;19913;-72
2023/01/15 11:01:26;;;;;;;;;;;7.10;99.90;;;;;;5033282;28;20309;-71
2023/01/15 11:03:52;;;;;;;;;;;7.20;99.90;;;;;;5036559;28;19919;-72
2023/01/15 11:06:19;;;;;;;;;;;7.30;99.90;;;;;;5035469;28;20002;-71
2023/01/15 11:08:48;;;;;;;;;;;7.20;99.90;;;;;;5036251;28;20289;-71
2023/01/15 11:19:37;;;;;;;;;;;7.30;99.90;;;;;;5035498;28;20302;-72
2023/01/15 11:22:07;;;;;;;;;;;7.30;99.90;;;;;;5033669;28;19913;-71
2023/01/15 11:24:35;;;;;;;;;;;7.30;99.90;;;;;;5036766;28;19935;-71
2023/01/15 11:27:00;;;;;;;;;;;7.30;99.90;;;;;;5037262;28;19948;-72
2023/01/15 11:29:26;;;;;;;;;;;7.30;99.90;;;;;;5034786;28;20384;-71
2023/01/15 11:31:51;;;;;;;;;;;7.30;99.90;;;;;;5036430;28;19913;-72
2023/01/15 11:34:20;;;;;;;;;;;7.30;99.90;;;;;;5038743;28;19967;-71
2023/01/15 11:36:45;;;;;;;;;;;7.30;99.90;;;;;;5037700;28;19960;-71
2023/01/15 11:39:26;;;;;;;;;;;7.30;99.90;;;;;;5031878;28;20353;-71
2023/01/15 11:53:02;;;;;;;;;;;7.30;99.90;;;;;;5047289;28;20346;-73
2023/01/15 11:55:27;;;;;;;;;;;7.30;99.90;;;;;;5043166;28;19917;-72
2023/01/15 11:57:54;;;;;;;;;;;7.30;99.90;;;;;;5039069;28;19924;-72
2023/01/15 12:00:20;;;;;;;;;;;7.30;99.90;;;;;;5038730;28;19920;-71
2023/01/15 12:02:48;;;;;;;;;;;7.40;99.90;;;;;;5041535;28;19913;-71
2023/01/15 12:05:15;;;;;;;;;;;7.30;99.90;;;;;;5039923;28;19960;-72
2023/01/15 12:07:41;;;;;;;;;;;7.30;99.90;;;;;;5038782;28;19917;-71
2023/01/15 12:13:11;;;;;;;;;;;7.30;99.90;;;;;;5040877;28;19920;-71
2023/01/15 12:15:41;;;;;;;;;;;7.30;99.90;;;;;;5040226;28;20088;-71
2023/01/15 12:18:25;;;;;;;;;;;7.40;99.90;;;;;;5038308;28;19913;-72
2023/01/15 12:21:06;;;;;;;;;;;7.30;99.90;;;;;;5032336;28;19919;-71
2023/01/15 12:23:32;;;;;;;;;;;7.30;99.90;;;;;;5029923;28;19996;-72
2023/01/15 12:26:19;;;;;;;;;;;7.30;99.90;;;;;;5050310;28;20413;-71
2023/01/15 12:28:51;;;;;;;;;;;7.40;99.90;;;;;;5036882;28;19921;-71
2023/01/15 12:31:18;;;;;;;;;;;7.40;99.90;;;;;;5036638;28;19913;-71
2023/01/15 12:33:47;;;;;;;;;;;7.40;99.90;;;;;;5039476;28;20432;-71
2023/01/15 12:36:19;;;;;;;;;;;7.40;99.90;;;;;;5040335;28;19970;-71
2023/01/15 12:38:49;;;;;;;;;;;7.40;99.90;;;;;;5038721;28;19995;-72
2023/01/15 12:41:17;;;;;;;;;;;7.40;99.90;;;;;;5041343;28;20043;-71
2023/01/15 12:46:31;;;;;;;;;;;7.40;99.90;;;;;;5039142;28;20059;-72
2023/01/15 12:49:02;;;;;;;;;;;7.40;99.90;;;;;;5047738;28;20005;-71
2023/01/15 12:51:50;;;;;;;;;;;7.30;99.90;;;;;;5058591;28;19921;-72
2023/01/15 12:54:19;;;;;;;;;;;7.40;99.90;;;;;;5026179;28;19959;-71
2023/01/15 12:56:58;;;;;;;;;;;7.40;99.90;;;;;;5065885;28;19912;-72
2023/01/15 12:59:58;;;;;;;;;;;7.40;99.90;;;;;;5068882;28;19999;-71
2023/01/15 13:02:33;;;;;;;;;;;7.40;99.90;;;;;;4986678;28;19937;-71
2023/01/15 13:05:18;;;;;;;;;;;7.40;99.90;;;;;;5056331;28;19908;-71
2023/01/15 13:07:52;;;;;;;;;;;7.40;99.90;;;;;;5069013;28;19912;-71
2023/01/15 13:10:18;;;;;;;;;;;7.40;99.90;;;;;;5068525;28;19908;-71
2023/01/15 13:12:43;;;;;;;;;;;7.50;99.90;;;;;;5065545;28;19915;-71
2023/01/15 13:15:12;;;;;;;;;;;7.50;99.90;;;;;;5048751;28;19913;-71
2023/01/15 13:17:38;;;;;;;;;;;7.50;99.90;;;;;;5047671;28;19915;-71
2023/01/15 13:20:24;;;;;;;;;;;7.50;99.90;;;;;;5032934;28;19909;-71
2023/01/15 13:23:05;;;;;;;;;;;7.50;99.90;;;;;;5028888;28;19920;-72
2023/01/15 13:25:38;;;;;;;;;;;7.50;99.90;;;;;;5035124;28;19924;-71
2023/01/15 13:28:03;;;;;;;;;;;7.50;99.90;;;;;;5037006;28;19917;-71
2023/01/15 13:30:41;;;;;;;;;;;7.50;99.90;;;;;;5028474;28;19913;-72
2023/01/15 13:33:09;;;;;;;;;;;7.40;99.90;;;;;;5027050;28;19910;-71
2023/01/15 13:35:45;;;;;;;;;;;7.40;99.90;;;;;;5028726;28;19913;-71
2023/01/15 13:38:14;;;;;;;;;;;7.40;99.90;;;;;;5028560;28;20485;-71
2023/01/15 13:40:43;;;;;;;;;;;7.40;99.90;;;;;;5028117;28;19920;-72
2023/01/15 13:43:17;;;;;;;;;;;7.40;99.90;;;;;;5033695;28;20563;-71
2023/01/15 13:45:48;;;;;;;;;;;7.40;99.90;;;;;;5048011;28;19927;-71
2023/01/15 13:48:14;;;;;;;;;;;7.40;99.90;;;;;;5046669;28;19913;-71
2023/01/15 13:50:41;;;;;;;;;;;7.30;99.90;;;;;;5067923;28;19913;-72
2023/01/15 13:53:15;;;;;;;;;;;7.30;99.90;;;;;;5068207;28;20026;-71
2023/01/15 13:55:48;;;;;;;;;;;7.30;99.90;;;;;;5066565;28;19912;-71
2023/01/15 13:58:19;;;;;;;;;;;7.40;99.90;;;;;;5067100;28;19917;-71
2023/01/15 14:00:44;;;;;;;;;;;7.30;99.90;;;;;;5067465;28;19912;-71
2023/01/15 14:03:24;;;;;;;;;;;7.30;99.90;;;;;;5067856;28;19912;-71
2023/01/15 14:05:56;;;;;;;;;;;7.30;99.90;;;;;;5068043;28;19999;-71
2023/01/15 14:08:24;;;;;;;;;;;7.30;99.90;;;;;;5067835;28;19917;-71
2023/01/15 14:10:49;;;;;;;;;;;7.30;99.90;;;;;;5067408;28;19913;-71
2023/01/15 14:13:15;;;;;;;;;;;7.30;99.70;;;;;;5061415;28;20381;-71
2023/01/15 14:15:46;;;;;;;;;;;7.30;99.90;;;;;;5047853;28;20015;-71
2023/01/15 14:18:28;;;;;;;;;;;7.30;99.90;;;;;;5044596;28;19909;-71
2023/01/15 14:20:57;;;;;;;;;;;7.30;99.90;;;;;;5027132;28;19913;-71
2023/01/15 14:23:42;;;;;;;;;;;7.20;99.90;;;;;;5027689;28;20091;-71
2023/01/15 14:26:17;;;;;;;;;;;7.20;99.90;;;;;;5040062;28;19916;-71
2023/01/15 14:29:01;;;;;;;;;;;7.30;99.90;;;;;;5043635;28;20571;-71
2023/01/15 14:31:39;;;;;;;;;;;7.20;99.90;;;;;;5039955;28;19913;-71
2023/01/15 14:34:04;;;;;;;;;;;7.30;99.90;;;;;;5026612;28;19923;-72
2023/01/15 14:36:36;;;;;;;;;;;7.30;99.90;;;;;;5026004;28;19917;-71
2023/01/15 14:39:02;;;;;;;;;;;7.20;99.90;;;;;;5036925;28;19916;-71
2023/01/15 14:41:30;;;;;;;;;;;7.20;99.90;;;;;;5044676;28;19919;-71
2023/01/15 14:43:57;;;;;;;;;;;7.20;99.90;;;;;;5037737;28;19925;-71
2023/01/15 14:46:22;;;;;;;;;;;7.20;99.90;;;;;;5029530;28;20358;-72
2023/01/15 14:48:48;;;;;;;;;;;7.20;99.90;;;;;;5035723;28;19924;-71
2023/01/15 14:51:15;;;;;;;;;;;7.20;99.90;;;;;;5037795;28;20278;-71
2023/01/15 14:53:46;;;;;;;;;;;7.20;99.80;;;;;;5038645;28;19913;-71
2023/01/15 14:56:14;;;;;;;;;;;7.20;99.90;;;;;;5041144;28;19920;-71
2023/01/15 14:59:15;;;;;;;;;;;7.20;99.90;;;;;;5037465;28;19913;-71
2023/01/15 15:01:42;;;;;;;;;;;7.20;99.90;;;;;;4957447;28;19918;-71
2023/01/15 15:04:37;;;;;;;;;;;7.20;99.90;;;;;;5046132;28;19909;-71
2023/01/15 15:07:14;;;;;;;;;;;7.20;99.90;;;;;;5028038;28;19955;-71
2023/01/15 15:09:44;;;;;;;;;;;7.20;99.90;;;;;;5036768;28;20052;-71
2023/01/15 15:12:28;;;;;;;;;;;7.20;99.90;;;;;;5036342;28;19917;-71
2023/01/15 15:15:06;;;;;;;;;;;7.20;99.90;;;;;;5038847;28;19921;-71
2023/01/15 15:17:37;;;;;;;;;;;7.10;99.90;;;;;;5036290;28;19913;-73
2023/01/15 15:20:16;;;;;;;;;;;7.10;99.90;;;;;;5034228;28;19967;-72
2023/01/15 15:22:42;;;;;;;;;;;7.20;99.90;;;;;;5035449;28;19928;-72
2023/01/15 15:25:10;;;;;;;;;;;7.10;99.90;;;;;;5032126;28;19923;-71
2023/01/15 15:27:35;;;;;;;;;;;7.10;99.90;;;;;;5030851;28;19932;-71
2023/01/15 15:30:02;;;;;;;;;;;7.10;99.90;;;;;;5033839;28;20285;-71
2023/01/15 15:32:28;;;;;;;;;;;7.10;99.90;;;;;;5034360;28;19943;-72
2023/01/15 15:34:53;;;;;;;;;;;7.10;99.90;;;;;;5035404;28;20425;-71
2023/01/15 15:37:21;;;;;;;;;;;7.10;99.90;;;;;;5036855;28;19928;-71
2023/01/15 15:39:53;;;;;;;;;;;7.10;99.90;;;;;;5033284;28;20266;-72